Pular para o conteúdo principal

Postagens

Mostrando postagens de Março 9, 2011

AVIÃO SAI DA PISTA NAS FILIPINAS

Um da PAL-Phillipines Airways, Airbus A320-200, realizando o voo PR-124 de Zamboanga para Mannila (Philippines), com 98 passageiros e 6 tripulantes, saiu da pista quando realiza manobras para decolar da  09.
Relevant NOTAM:
B0273/11 - RWY 09/27 CLSD DUE TO DISABLED ACFT ON THE RWY. 09 MAR 06:46 2011 UNTIL 09 MAR
09:30 2011 ESTIMATED. CREATED: 09 MAR 06:47 2011

Metars:
RPMZ 090200Z 04006KT 9999 SCT018 32/25 Q1013 A2993
RPMZ 090100Z 02004KT 9999 FEW018 30/25 Q1013 A2993
RPMZ 090000Z 04006KT 9999 FEW018TCU 28/26 Q1012 A2991 TCU, N
RPMZ 082300Z 02004KT 9999 FEW018CB SCT120 25/24 Q1012 A2989 CB, N
RPMZ 082200Z 00000KT 9999 FEW018CB BKN120 25/24 Q1011 A2987 CB N,S, MOVNG W
RPMZ 081500Z 00000KT 9999 SCT018 OVC120 27/24 Q1012 A2990 LOW CLDS E AND OVHD MVNG W

fonte/AvHerald/Foto/AP

PILOTO MORRE EM QUEDA DE AVIÃO NO NORTE DE MATO GROSSO

O piloto Rogério Gomes Ferreira, 27 anos, foi sepultado, ontem à tarde, em Tapurah, no Nortão. Ele faleceu na segunda-feira quando o avião agrícola que pilotava acabou caindo, no município de Paranatinga. Ele estava sozinho na aeronave. O acidente foi por volta das 8h50, em uma fazenda na comunidade de Pacu, a cerca de 40 quilômetros da cidade. As causas serão apuradas. Não foi confirmado se, no momento da queda, o piloto estava passando produtos agrotóxicos na lavoura. Rogério era casado e tinha um filho. fonte/ANoticia

JATOS PRIVADOS DE GADDAFI PASSAM PELO ESPAÇO ÁEREO EUROPEU

Três jatos privados da família do líder líbio, Muammar Kadafi, foram detectados pelo controle aéreo de Malta, indicou nesta quarta-feira a emissora de televisão árabe "Al Jazeera". Segundo esta informação, os três aviões Falcon de Kadafi, cada um com capacidade de seis a oito passageiros decolaram de Trípoli com destino a Viena, Atenas e Cairo. Não se sabe, contudo, quem viaja no interior das aeronaves. A notícia foi recebida em Benghazi, capital provisória dos revolucionários líbios, com tiros para o ar e mostras de entusiasmo, constatou a Agência Efe. Em Atenas, fontes do Ministério de Exteriores grego disseram à Efe que um avião privado Falcon procedente de Trípoli sobrevoou nesta quarta-feira o espaço aéreo da Grécia em direção ao Cairo, sem indicar se a bordo viajava alguém próximo a Muammar Kadafi. "A única coisa que podemos confirmar é que um avião (líbio) passou pelo espaço aéreo grego", disse uma fonte do Ministério. Na última segunda-feira, …